createdAt,value
2018-12-12T00:02:05.811Z,9.05
2018-12-12T00:04:34.910Z,7.45
2018-12-12T00:07:04.287Z,6.53
2018-12-12T00:09:33.365Z,8.38
2018-12-12T00:12:02.428Z,11.30
2018-12-12T00:14:31.556Z,13.85
2018-12-12T00:17:00.631Z,10.68
2018-12-12T00:19:29.937Z,7.33
2018-12-12T00:21:59.087Z,12.70
2018-12-12T00:24:28.150Z,6.75
2018-12-12T00:26:57.250Z,11.75
2018-12-12T00:29:26.382Z,11.90
2018-12-12T00:31:55.479Z,10.85
2018-12-12T00:34:24.573Z,20.30
2018-12-12T00:36:53.841Z,14.03
2018-12-12T00:39:22.909Z,6.20
2018-12-12T00:41:51.995Z,8.00
2018-12-12T00:44:21.118Z,10.18
2018-12-12T00:46:50.529Z,7.80
2018-12-12T00:49:19.701Z,8.65
2018-12-12T00:51:48.904Z,7.85
2018-12-12T00:54:18.415Z,8.20
2018-12-12T00:56:47.517Z,7.55
2018-12-12T00:59:17.583Z,10.90
2018-12-12T01:01:46.721Z,8.98
2018-12-12T01:04:15.785Z,7.08
2018-12-12T01:06:44.896Z,11.40
2018-12-12T01:09:13.974Z,6.60
2018-12-12T01:11:48.285Z,14.78
2018-12-12T01:14:17.463Z,8.25
2018-12-12T01:16:46.541Z,11.78
2018-12-12T01:19:15.639Z,9.33
2018-12-12T01:21:44.763Z,10.03
2018-12-12T01:24:13.958Z,19.40
2018-12-12T01:26:43.089Z,8.25
2018-12-12T01:29:12.288Z,10.85
2018-12-12T01:31:41.358Z,10.43
2018-12-12T01:34:10.487Z,8.78
2018-12-12T01:36:39.569Z,11.45
2018-12-12T01:39:08.635Z,10.03
2018-12-12T01:41:37.749Z,9.43
2018-12-12T01:44:06.823Z,8.98
2018-12-12T01:46:35.859Z,8.75
2018-12-12T01:49:04.965Z,11.55
2018-12-12T01:51:34.039Z,15.80
2018-12-12T01:54:03.115Z,8.38
2018-12-12T01:56:32.655Z,7.87
2018-12-12T01:59:01.723Z,8.50
2018-12-12T02:01:31.379Z,14.47
2018-12-12T02:04:01.376Z,14.33
2018-12-12T02:06:30.424Z,8.98
2018-12-12T02:08:59.533Z,11.38
2018-12-12T02:11:28.654Z,9.78
2018-12-12T02:13:57.723Z,6.90
2018-12-12T02:16:26.811Z,10.40
2018-12-12T02:18:56.051Z,12.95
2018-12-12T02:21:25.138Z,9.58
2018-12-12T02:23:54.215Z,11.05
2018-12-12T02:26:23.365Z,9.93
2018-12-12T02:28:52.431Z,16.07
2018-12-12T02:31:21.515Z,12.15
2018-12-12T02:33:51.476Z,7.70
2018-12-12T02:36:21.149Z,18.50
2018-12-12T02:38:50.235Z,9.53
2018-12-12T02:41:19.343Z,9.68
2018-12-12T02:43:48.413Z,9.03
2018-12-12T02:46:17.467Z,8.90
2018-12-12T02:48:46.563Z,10.95
2018-12-12T02:51:15.631Z,9.65
2018-12-12T02:53:44.682Z,9.08
2018-12-12T02:56:13.773Z,11.73
2018-12-12T02:58:43.031Z,13.70
2018-12-12T03:01:12.071Z,9.25
2018-12-12T03:03:41.156Z,8.98
2018-12-12T03:06:10.221Z,9.20
2018-12-12T03:08:39.275Z,15.65
2018-12-12T03:11:08.381Z,14.20
2018-12-12T03:13:37.438Z,7.90
2018-12-12T03:16:06.609Z,6.65
2018-12-12T03:18:35.747Z,11.05
2018-12-12T03:21:04.838Z,12.68
2018-12-12T03:23:33.901Z,7.85
2018-12-12T03:26:03.119Z,11.38
2018-12-12T03:28:32.223Z,8.10
2018-12-12T03:31:01.301Z,10.28
2018-12-12T03:33:30.377Z,10.20
2018-12-12T03:35:59.472Z,8.65
2018-12-12T03:38:28.917Z,9.60
2018-12-12T03:40:58.135Z,14.73
2018-12-12T03:43:27.182Z,10.98
2018-12-12T03:45:56.243Z,13.60
2018-12-12T03:48:25.327Z,14.50
2018-12-12T03:50:54.416Z,10.60
2018-12-12T03:53:23.439Z,8.48
2018-12-12T03:55:52.519Z,9.90
2018-12-12T03:58:21.577Z,8.13
2018-12-12T04:00:50.819Z,12.33
2018-12-12T04:03:19.912Z,8.60
2018-12-12T04:05:48.987Z,9.75
2018-12-12T04:08:18.071Z,10.88
2018-12-12T04:10:47.172Z,10.85
2018-12-12T04:13:16.255Z,11.45
2018-12-12T04:15:45.341Z,10.43
2018-12-12T04:18:14.516Z,8.05
2018-12-12T04:20:43.598Z,17.20
2018-12-12T04:23:12.651Z,10.65
2018-12-12T04:25:42.011Z,13.10
2018-12-12T04:28:11.084Z,10.15
2018-12-12T04:30:40.177Z,11.48
2018-12-12T04:33:09.306Z,9.10
2018-12-12T04:35:38.683Z,7.92
2018-12-12T04:38:07.833Z,8.10
2018-12-12T04:40:36.962Z,8.33
2018-12-12T04:43:06.048Z,8.78
2018-12-12T04:45:35.118Z,10.03
2018-12-12T04:48:04.215Z,13.70
2018-12-12T04:50:33.823Z,14.35
2018-12-12T04:53:02.901Z,11.43
2018-12-12T04:55:32.014Z,13.65
2018-12-12T04:58:01.292Z,12.75
2018-12-12T05:00:30.368Z,12.37
2018-12-12T05:02:59.852Z,10.25
2018-12-12T05:05:28.904Z,13.05
2018-12-12T05:07:57.957Z,15.95
2018-12-12T05:10:27.079Z,11.28
2018-12-12T05:12:56.144Z,14.15
2018-12-12T05:15:25.214Z,12.43
2018-12-12T05:17:54.417Z,20.95
2018-12-12T05:20:23.544Z,9.98
2018-12-12T05:22:52.639Z,12.45
2018-12-12T05:25:21.735Z,13.13
2018-12-12T05:27:50.779Z,16.90
2018-12-12T05:30:19.880Z,10.28
2018-12-12T05:32:48.983Z,10.95
2018-12-12T05:35:18.041Z,9.70
2018-12-12T05:37:51.910Z,10.95
2018-12-12T05:40:18.798Z,15.08
2018-12-12T05:42:48.298Z,15.70
2018-12-12T05:45:18.528Z,11.85
2018-12-12T05:47:48.169Z,9.03
2018-12-12T05:50:17.208Z,12.95
2018-12-12T05:52:46.473Z,14.80
2018-12-12T05:55:15.779Z,19.02
2018-12-12T05:57:44.833Z,16.97
2018-12-12T06:00:15.019Z,19.77
2018-12-12T06:02:44.063Z,14.10
2018-12-12T06:05:13.916Z,15.93
2018-12-12T06:07:43.359Z,11.88
2018-12-12T06:10:12.653Z,17.45
2018-12-12T06:12:41.793Z,13.55
2018-12-12T06:15:10.853Z,13.83
2018-12-12T06:17:39.905Z,14.23
2018-12-12T06:20:09.208Z,13.15
2018-12-12T06:22:38.737Z,15.45
2018-12-12T06:25:08.015Z,12.23
2018-12-12T06:27:37.107Z,13.55
2018-12-12T06:30:07.431Z,12.82
2018-12-12T06:32:36.868Z,16.55
2018-12-12T06:35:06.269Z,12.07
2018-12-12T06:37:35.327Z,11.15
2018-12-12T06:40:05.312Z,8.23
2018-12-12T06:42:34.370Z,9.55
2018-12-12T06:45:04.699Z,11.60
2018-12-12T06:47:35.317Z,18.62
2018-12-12T06:50:05.283Z,8.43
2018-12-12T06:52:35.727Z,13.13
2018-12-12T06:55:05.045Z,9.23
2018-12-12T06:57:35.251Z,9.35
2018-12-12T07:00:05.605Z,9.95
2018-12-12T07:02:34.668Z,9.90
2018-12-12T07:05:04.667Z,13.62
2018-12-12T07:07:34.415Z,11.12
2018-12-12T07:10:03.777Z,7.95
2018-12-12T07:12:32.829Z,12.85
2018-12-12T07:15:02.163Z,11.45
2018-12-12T07:17:31.286Z,14.78
2018-12-12T07:20:00.497Z,12.95
2018-12-12T07:22:36.345Z,11.30
2018-12-12T07:25:05.887Z,14.83
2018-12-12T07:27:35.274Z,10.60
2018-12-12T07:30:05.429Z,10.70
2018-12-12T07:32:34.629Z,17.65
2018-12-12T07:35:03.957Z,14.63
2018-12-12T07:37:33.080Z,17.80
2018-12-12T07:40:02.129Z,18.35
2018-12-12T07:42:31.905Z,13.85
2018-12-12T07:45:01.311Z,13.13
2018-12-12T07:47:30.679Z,13.43
2018-12-12T07:49:59.803Z,11.43
2018-12-12T07:52:28.917Z,12.98
2018-12-12T07:54:57.951Z,14.60
2018-12-12T07:57:26.991Z,14.20
2018-12-12T07:59:56.423Z,13.43
2018-12-12T08:02:26.205Z,18.80
2018-12-12T08:04:55.247Z,19.77
2018-12-12T08:07:24.359Z,17.98
2018-12-12T08:09:53.421Z,19.37
2018-12-12T08:12:22.479Z,14.40
2018-12-12T08:14:51.614Z,19.90
2018-12-12T08:17:20.675Z,26.45
2018-12-12T08:19:49.731Z,15.28
2018-12-12T08:22:18.827Z,19.35
2018-12-12T08:24:48.093Z,16.67
2018-12-12T08:27:17.281Z,19.02
2018-12-12T08:29:46.375Z,22.80
2018-12-12T08:32:15.451Z,24.32
2018-12-12T08:34:44.547Z,23.22
2018-12-12T08:37:13.585Z,14.75
2018-12-12T08:39:42.726Z,14.33
2018-12-12T08:42:11.957Z,19.37
2018-12-12T08:44:47.788Z,16.40
2018-12-12T08:47:16.861Z,17.52
2018-12-12T08:49:45.939Z,17.57
2018-12-12T08:52:15.049Z,28.87
2018-12-12T08:54:44.160Z,24.20
2018-12-12T08:57:13.799Z,20.00
2018-12-12T08:59:42.870Z,16.15
2018-12-12T09:02:11.996Z,12.47
2018-12-12T09:04:41.463Z,24.20
2018-12-12T09:07:10.563Z,16.27
2018-12-12T09:09:39.653Z,16.65
2018-12-12T09:12:08.715Z,19.90
2018-12-12T09:14:38.511Z,15.68
2018-12-12T09:17:09.874Z,19.62
2018-12-12T09:19:38.687Z,18.80
2018-12-12T09:22:07.827Z,14.78
2018-12-12T09:24:37.605Z,17.25
2018-12-12T09:27:06.667Z,18.32
2018-12-12T09:29:35.837Z,23.13
2018-12-12T09:32:04.943Z,24.40
2018-12-12T09:34:33.975Z,22.63
2018-12-12T09:37:03.740Z,19.63
2018-12-12T09:39:32.785Z,25.17
2018-12-12T09:42:01.859Z,19.00
2018-12-12T09:44:31.059Z,17.60
2018-12-12T09:47:00.150Z,21.97
2018-12-12T09:49:29.229Z,29.03
2018-12-12T09:51:58.302Z,18.27
2018-12-12T09:54:27.388Z,17.53
2018-12-12T09:56:56.547Z,17.57
2018-12-12T09:59:25.644Z,22.07
2018-12-12T10:01:54.728Z,23.00
2018-12-12T10:04:23.763Z,19.97
2018-12-12T10:06:53.354Z,21.30
2018-12-12T10:09:22.394Z,21.20
2018-12-12T10:11:51.456Z,23.10
2018-12-12T10:14:20.548Z,20.60
2018-12-12T10:16:50.356Z,24.20
2018-12-12T10:19:19.542Z,17.47
2018-12-12T10:21:50.121Z,26.03
2018-12-12T10:24:19.507Z,31.10
2018-12-12T10:26:48.569Z,22.80
2018-12-12T10:29:17.691Z,23.73
2018-12-12T10:31:46.744Z,20.70
2018-12-12T10:34:15.793Z,20.00
2018-12-12T10:36:44.873Z,21.00
2018-12-12T10:39:14.028Z,20.70
2018-12-12T10:41:43.242Z,20.90
2018-12-12T10:44:12.382Z,19.87
2018-12-12T10:46:41.456Z,28.93
2018-12-12T10:49:10.522Z,24.63
2018-12-12T10:51:39.677Z,23.77
2018-12-12T10:54:08.740Z,19.67
2018-12-12T10:56:37.807Z,17.93
2018-12-12T10:59:06.913Z,19.40
2018-12-12T11:01:41.275Z,19.77
2018-12-12T11:04:10.355Z,20.10
2018-12-12T11:06:39.577Z,19.43
2018-12-12T11:09:09.236Z,22.83
2018-12-12T11:11:38.358Z,22.20
2018-12-12T11:14:07.429Z,21.07
2018-12-12T11:16:36.515Z,20.07
2018-12-12T11:19:05.712Z,19.10
2018-12-12T11:21:34.837Z,19.73
2018-12-12T11:24:03.892Z,18.37
2018-12-12T11:26:33.087Z,20.50
2018-12-12T11:29:02.180Z,21.07
2018-12-12T11:31:31.695Z,17.50
2018-12-12T11:34:00.837Z,18.07
2018-12-12T11:36:29.952Z,17.03
2018-12-12T11:38:59.181Z,20.90
2018-12-12T11:41:29.079Z,17.10
2018-12-12T11:43:58.140Z,20.00
2018-12-12T11:46:27.185Z,19.93
2018-12-12T11:48:56.940Z,20.00
2018-12-12T11:51:26.032Z,19.40
2018-12-12T11:53:55.083Z,15.50
2018-12-12T11:56:24.184Z,20.33
2018-12-12T11:58:53.215Z,20.10
2018-12-12T12:01:22.393Z,19.37
2018-12-12T12:03:56.749Z,18.90
2018-12-12T12:06:22.663Z,22.20
2018-12-12T12:08:51.769Z,21.10
2018-12-12T12:11:21.001Z,19.63
2018-12-12T12:13:50.071Z,17.17
2018-12-12T12:16:19.187Z,16.40
2018-12-12T12:18:48.254Z,17.03
2018-12-12T12:21:17.368Z,16.50
2018-12-12T12:23:46.416Z,19.27
2018-12-12T12:26:15.790Z,17.47
2018-12-12T12:28:44.834Z,17.60
2018-12-12T12:31:14.024Z,22.37
2018-12-12T12:33:43.756Z,20.00
2018-12-12T12:36:12.800Z,16.03
2018-12-12T12:38:41.888Z,14.80
2018-12-12T12:41:10.959Z,13.63
2018-12-12T12:43:40.226Z,15.20
2018-12-12T12:46:09.298Z,15.37
2018-12-12T12:48:38.476Z,20.77
2018-12-12T12:51:07.527Z,16.57
2018-12-12T12:53:36.650Z,15.40
2018-12-12T12:56:05.682Z,12.83
2018-12-12T12:58:35.366Z,14.70
2018-12-12T13:01:04.471Z,14.07
2018-12-12T13:03:33.626Z,13.73
2018-12-12T13:06:02.676Z,12.47
2018-12-12T13:08:31.763Z,13.57
2018-12-12T13:11:00.868Z,13.97
2018-12-12T13:13:30.115Z,14.77
2018-12-12T13:15:59.599Z,13.93
2018-12-12T13:18:28.655Z,13.03
2018-12-12T13:20:57.867Z,9.93
2018-12-12T13:23:27.546Z,12.30
2018-12-12T13:25:56.693Z,15.03
2018-12-12T13:28:25.781Z,13.60
2018-12-12T13:30:55.029Z,12.80
2018-12-12T13:33:24.761Z,14.33
2018-12-12T13:35:54.411Z,12.57
2018-12-12T13:38:23.473Z,12.17
2018-12-12T13:40:52.683Z,15.53
2018-12-12T13:43:21.819Z,11.80
2018-12-12T13:45:50.898Z,10.90
2018-12-12T13:48:19.935Z,11.03
2018-12-12T13:50:48.961Z,11.07
2018-12-12T13:53:18.184Z,11.37
2018-12-12T13:55:47.230Z,11.17
2018-12-12T13:58:16.286Z,11.83
2018-12-12T14:00:45.367Z,12.83
2018-12-12T14:03:14.416Z,12.50
2018-12-12T14:05:43.453Z,11.50
2018-12-12T14:08:12.507Z,8.63
2018-12-12T14:10:41.551Z,13.60
2018-12-12T14:13:10.600Z,14.63
2018-12-12T14:15:39.664Z,9.30
2018-12-12T14:18:08.842Z,10.57
2018-12-12T14:20:37.886Z,7.33
2018-12-12T14:23:06.959Z,13.13
2018-12-12T14:25:35.976Z,11.77
2018-12-12T14:28:05.163Z,10.03
2018-12-12T14:30:34.216Z,10.50
2018-12-12T14:33:03.281Z,10.13
2018-12-12T14:35:32.533Z,13.60
2018-12-12T14:38:01.915Z,14.43
2018-12-12T14:40:31.050Z,12.33
2018-12-12T14:43:00.101Z,9.83
2018-12-12T14:45:29.216Z,11.83
2018-12-12T14:47:58.250Z,9.03
2018-12-12T14:50:27.284Z,10.53
2018-12-12T14:52:56.343Z,10.30
2018-12-12T14:55:25.371Z,9.37
2018-12-12T14:57:54.402Z,11.27
2018-12-12T15:00:23.480Z,11.40
2018-12-12T15:02:52.514Z,9.83
2018-12-12T15:05:21.527Z,12.73
2018-12-12T15:07:50.601Z,15.13
2018-12-12T15:10:19.616Z,11.77
2018-12-12T15:12:48.651Z,16.20
2018-12-12T15:15:17.729Z,13.93
2018-12-12T15:17:46.745Z,7.90
2018-12-12T15:20:15.805Z,10.27
2018-12-12T15:22:44.911Z,13.17
2018-12-12T15:25:13.945Z,12.67
2018-12-12T15:27:43.602Z,10.37
2018-12-12T15:30:12.721Z,19.67
2018-12-12T15:32:42.146Z,16.67
2018-12-12T15:35:12.163Z,10.20
2018-12-12T15:37:41.231Z,12.70
2018-12-12T15:40:11.401Z,14.93
2018-12-12T15:42:40.499Z,16.87
2018-12-12T15:45:09.563Z,10.70
2018-12-12T15:47:39.152Z,13.27
2018-12-12T15:50:08.354Z,17.17
2018-12-12T15:52:37.884Z,13.53
2018-12-12T15:55:07.061Z,11.30
2018-12-12T15:57:36.100Z,11.93
2018-12-12T16:00:06.484Z,15.47
2018-12-12T16:02:35.841Z,9.97
2018-12-12T16:05:05.539Z,9.30
2018-12-12T16:07:34.590Z,9.97
2018-12-12T16:10:04.258Z,13.13
2018-12-12T16:12:33.308Z,17.23
2018-12-12T16:15:02.366Z,10.97
2018-12-12T16:17:31.464Z,10.17
2018-12-12T16:20:00.915Z,13.60
2018-12-12T16:22:29.978Z,14.80
2018-12-12T16:24:59.056Z,16.07
2018-12-12T16:27:28.217Z,10.63
2018-12-12T16:29:57.272Z,11.73
2018-12-12T16:32:26.320Z,12.53
2018-12-12T16:34:55.747Z,22.93
2018-12-12T16:37:25.154Z,18.30
2018-12-12T16:39:54.220Z,11.10
2018-12-12T16:42:24.025Z,11.40
2018-12-12T16:44:53.054Z,12.73
2018-12-12T16:47:22.132Z,11.30
2018-12-12T16:49:51.284Z,16.20
2018-12-12T16:52:20.351Z,10.10
2018-12-12T16:54:49.429Z,12.47
2018-12-12T16:57:18.476Z,10.70
2018-12-12T16:59:47.570Z,13.80
2018-12-12T17:02:16.618Z,9.40
2018-12-12T17:04:45.669Z,12.60
2018-12-12T17:07:14.988Z,8.53
2018-12-12T17:09:44.060Z,10.43
2018-12-12T17:12:13.121Z,8.83
2018-12-12T17:14:42.162Z,23.33
2018-12-12T17:17:11.400Z,12.10
2018-12-12T17:19:40.518Z,8.93
2018-12-12T17:22:09.574Z,16.07
2018-12-12T17:24:38.700Z,11.50
2018-12-12T17:27:07.760Z,11.50
2018-12-12T17:29:37.481Z,12.50
2018-12-12T17:32:06.580Z,10.70
2018-12-12T17:34:35.667Z,10.37
2018-12-12T17:37:04.809Z,10.50
2018-12-12T17:39:33.908Z,12.20
2018-12-12T17:42:03.051Z,11.80
2018-12-12T17:44:32.586Z,12.30
2018-12-12T17:47:01.667Z,13.23
2018-12-12T17:49:30.740Z,13.43
2018-12-12T17:51:59.834Z,13.17
2018-12-12T17:54:28.916Z,14.93
2018-12-12T17:56:57.990Z,19.63
2018-12-12T17:59:27.118Z,12.80
2018-12-12T18:01:56.279Z,15.47
2018-12-12T18:04:25.581Z,13.73
2018-12-12T18:06:54.637Z,20.33
2018-12-12T18:09:23.728Z,11.67
2018-12-12T18:11:52.821Z,18.70
2018-12-12T18:14:21.935Z,17.40
2018-12-12T18:16:50.990Z,14.20
2018-12-12T18:19:20.058Z,18.00
2018-12-12T18:21:49.150Z,21.70
2018-12-12T18:24:18.204Z,17.70
2018-12-12T18:26:48.015Z,16.90
2018-12-12T18:29:17.092Z,14.70
2018-12-12T18:31:46.140Z,17.60
2018-12-12T18:34:15.770Z,25.40
2018-12-12T18:36:44.899Z,18.90
2018-12-12T18:39:14.098Z,16.27
2018-12-12T18:41:43.166Z,18.00
2018-12-12T18:44:12.254Z,15.23
2018-12-12T18:46:41.566Z,17.17
2018-12-12T18:49:10.618Z,16.73
2018-12-12T18:51:39.714Z,16.37
2018-12-12T18:54:08.931Z,15.13
2018-12-12T18:56:38.155Z,15.67
2018-12-12T18:59:07.812Z,18.47
2018-12-12T19:01:36.876Z,15.50
2018-12-12T19:04:05.953Z,15.40
2018-12-12T19:06:35.040Z,17.47
2018-12-12T19:09:05.595Z,15.23
2018-12-12T19:11:34.695Z,28.33
2018-12-12T19:14:03.836Z,13.83
2018-12-12T19:16:32.900Z,13.00
2018-12-12T19:19:02.054Z,20.30
2018-12-12T19:21:31.183Z,14.53
2018-12-12T19:24:00.287Z,15.50
2018-12-12T19:26:29.411Z,20.90
2018-12-12T19:28:58.487Z,19.47
2018-12-12T19:31:27.569Z,13.73
2018-12-12T19:33:56.660Z,17.80
2018-12-12T19:36:25.810Z,16.00
2018-12-12T19:38:54.892Z,14.30
2018-12-12T19:41:23.984Z,16.83
2018-12-12T19:43:53.104Z,17.10
2018-12-12T19:46:22.314Z,16.40
2018-12-12T19:48:51.644Z,18.20
2018-12-12T19:51:20.710Z,19.00
2018-12-12T19:53:49.818Z,16.67
2018-12-12T19:56:19.016Z,19.83
2018-12-12T19:58:48.098Z,18.83
2018-12-12T20:01:17.216Z,18.30
2018-12-12T20:03:46.294Z,18.47
2018-12-12T20:06:15.399Z,17.40
2018-12-12T20:08:44.596Z,20.12
2018-12-12T20:11:13.734Z,24.77
2018-12-12T20:13:42.824Z,20.03
2018-12-12T20:16:11.896Z,16.37
2018-12-12T20:18:41.036Z,32.60
2018-12-12T20:21:10.118Z,18.87
2018-12-12T20:23:39.230Z,20.53
2018-12-12T20:26:08.336Z,22.07
2018-12-12T20:28:37.405Z,22.60
2018-12-12T20:31:06.574Z,25.73
2018-12-12T20:33:35.686Z,20.57
2018-12-12T20:36:04.784Z,20.40
2018-12-12T20:38:34.592Z,20.13
2018-12-12T20:41:03.726Z,23.87
2018-12-12T20:43:32.797Z,20.13
2018-12-12T20:46:01.890Z,21.63
2018-12-12T20:48:31.093Z,18.67
2018-12-12T20:51:00.398Z,26.10
2018-12-12T20:53:29.441Z,24.13
2018-12-12T20:55:58.532Z,22.27
2018-12-12T20:58:27.614Z,24.00
2018-12-12T21:00:56.688Z,23.73
2018-12-12T21:03:25.814Z,21.50
2018-12-12T21:05:54.890Z,23.77
2018-12-12T21:08:23.969Z,20.67
2018-12-12T21:10:53.060Z,19.80
2018-12-12T21:13:22.144Z,24.53
2018-12-12T21:15:51.223Z,26.03
2018-12-12T21:18:20.340Z,21.77
2018-12-12T21:20:49.407Z,21.83
2018-12-12T21:23:18.481Z,28.70
2018-12-12T21:25:48.088Z,23.00
2018-12-12T21:28:17.152Z,22.53
2018-12-12T21:30:46.215Z,23.17
2018-12-12T21:33:15.302Z,22.80
2018-12-12T21:35:44.358Z,27.87
2018-12-12T21:38:13.417Z,24.97
2018-12-12T21:40:42.694Z,24.53
2018-12-12T21:43:11.772Z,20.60
2018-12-12T21:45:40.849Z,22.60
2018-12-12T21:48:09.937Z,43.57
2018-12-12T21:50:39.043Z,25.20
2018-12-12T21:53:08.244Z,21.33
2018-12-12T21:55:38.212Z,19.50
2018-12-12T21:58:07.261Z,20.50
2018-12-12T22:00:36.332Z,19.83
2018-12-12T22:03:05.452Z,19.33
2018-12-12T22:05:34.524Z,24.50
2018-12-12T22:08:03.740Z,17.97
2018-12-12T22:10:32.806Z,18.80
2018-12-12T22:13:01.928Z,20.60
2018-12-12T22:15:31.096Z,16.57
2018-12-12T22:18:00.177Z,21.77
2018-12-12T22:20:29.262Z,18.83
2018-12-12T22:22:58.387Z,18.77
2018-12-12T22:25:28.150Z,18.63
2018-12-12T22:27:57.236Z,19.23
2018-12-12T22:30:26.360Z,17.13
2018-12-12T22:32:55.799Z,16.50
2018-12-12T22:35:24.879Z,20.67
2018-12-12T22:37:53.963Z,18.50
2018-12-12T22:40:23.073Z,16.47
2018-12-12T22:42:52.134Z,15.50
2018-12-12T22:45:21.246Z,21.53
2018-12-12T22:47:51.236Z,17.20
2018-12-12T22:50:20.316Z,15.00
2018-12-12T22:52:49.406Z,16.70
2018-12-12T22:55:18.751Z,20.13
2018-12-12T22:57:47.813Z,14.27
2018-12-12T23:00:22.351Z,13.67
2018-12-12T23:02:51.427Z,13.17
2018-12-12T23:05:20.532Z,17.30
2018-12-12T23:07:49.648Z,12.70
2018-12-12T23:10:18.761Z,14.90
2018-12-12T23:12:47.822Z,18.93
2018-12-12T23:15:16.917Z,12.73
2018-12-12T23:17:46.006Z,13.30
2018-12-12T23:20:15.151Z,13.17
2018-12-12T23:22:44.215Z,14.57
2018-12-12T23:25:13.345Z,17.03
2018-12-12T23:27:42.455Z,18.13
2018-12-12T23:30:11.583Z,11.77
2018-12-12T23:32:40.699Z,10.03
2018-12-12T23:35:09.779Z,11.93
2018-12-12T23:37:38.839Z,12.73
2018-12-12T23:40:08.084Z,12.10
2018-12-12T23:42:37.150Z,11.83
2018-12-12T23:45:06.353Z,14.77
2018-12-12T23:47:35.478Z,13.03
2018-12-12T23:50:04.940Z,13.33
2018-12-12T23:52:34.019Z,12.37
2018-12-12T23:55:03.153Z,13.00
2018-12-12T23:57:32.496Z,11.90
